sensor_id;sensor_type;location;lat;lon;timestamp;temperature;humidity
15203;DHT22;7702;51.046;5.184;2023-07-20T00:01:58;17.20;99.90
15203;DHT22;7702;51.046;5.184;2023-07-20T00:04:24;17.20;99.90
15203;DHT22;7702;51.046;5.184;2023-07-20T00:06:49;17.20;99.90
15203;DHT22;7702;51.046;5.184;2023-07-20T00:09:15;17.10;99.90
15203;DHT22;7702;51.046;5.184;2023-07-20T00:11:49;17.10;99.90
15203;DHT22;7702;51.046;5.184;2023-07-20T00:14:19;17.00;99.90
15203;DHT22;7702;51.046;5.184;2023-07-20T00:16:49;17.00;99.90
15203;DHT22;7702;51.046;5.184;2023-07-20T00:19:27;16.90;99.90
15203;DHT22;7702;51.046;5.184;2023-07-20T00:21:53;16.80;99.90
15203;DHT22;7702;51.046;5.184;2023-07-20T00:24:20;16.80;99.90
15203;DHT22;7702;51.046;5.184;2023-07-20T00:26:46;16.70;99.90
15203;DHT22;7702;51.046;5.184;2023-07-20T00:29:11;16.70;99.90
15203;DHT22;7702;51.046;5.184;2023-07-20T00:31:37;16.60;99.90
15203;DHT22;7702;51.046;5.184;2023-07-20T00:34:04;16.50;99.90
15203;DHT22;7702;51.046;5.184;2023-07-20T00:36:29;16.40;99.90
15203;DHT22;7702;51.046;5.184;2023-07-20T00:38:55;16.40;99.90
15203;DHT22;7702;51.046;5.184;2023-07-20T00:41:21;16.30;99.90
15203;DHT22;7702;51.046;5.184;2023-07-20T00:43:47;16.30;99.90
15203;DHT22;7702;51.046;5.184;2023-07-20T00:46:13;16.40;99.90
15203;DHT22;7702;51.046;5.184;2023-07-20T00:48:40;16.40;99.90
15203;DHT22;7702;51.046;5.184;2023-07-20T00:51:06;16.40;99.90
15203;DHT22;7702;51.046;5.184;2023-07-20T00:53:33;16.40;99.90
15203;DHT22;7702;51.046;5.184;2023-07-20T00:55:59;16.50;99.90
15203;DHT22;7702;51.046;5.184;2023-07-20T00:58:25;16.60;99.90
15203;DHT22;7702;51.046;5.184;2023-07-20T01:00:51;16.60;99.90
15203;DHT22;7702;51.046;5.184;2023-07-20T01:03:17;16.50;99.90
15203;DHT22;7702;51.046;5.184;2023-07-20T01:05:51;16.60;99.90
15203;DHT22;7702;51.046;5.184;2023-07-20T01:08:33;16.60;99.90
15203;DHT22;7702;51.046;5.184;2023-07-20T01:11:13;16.60;99.90
15203;DHT22;7702;51.046;5.184;2023-07-20T01:13:43;16.60;99.90
15203;DHT22;7702;51.046;5.184;2023-07-20T01:16:09;16.60;99.90
15203;DHT22;7702;51.046;5.184;2023-07-20T01:18:34;16.60;99.90
15203;DHT22;7702;51.046;5.184;2023-07-20T01:21:05;16.60;99.90
15203;DHT22;7702;51.046;5.184;2023-07-20T01:26:27;16.50;99.90
15203;DHT22;7702;51.046;5.184;2023-07-20T01:31:41;16.50;99.90
15203;DHT22;7702;51.046;5.184;2023-07-20T01:34:12;16.50;99.90
15203;DHT22;7702;51.046;5.184;2023-07-20T01:36:42;16.50;99.90
15203;DHT22;7702;51.046;5.184;2023-07-20T01:39:10;16.50;99.90
15203;DHT22;7702;51.046;5.184;2023-07-20T01:41:36;16.50;99.90
15203;DHT22;7702;51.046;5.184;2023-07-20T01:44:04;16.40;99.90
15203;DHT22;7702;51.046;5.184;2023-07-20T01:46:30;16.40;99.90
15203;DHT22;7702;51.046;5.184;2023-07-20T01:48:55;16.50;99.90
15203;DHT22;7702;51.046;5.184;2023-07-20T01:51:21;16.40;99.90
15203;DHT22;7702;51.046;5.184;2023-07-20T01:53:47;16.40;99.90
15203;DHT22;7702;51.046;5.184;2023-07-20T01:56:13;16.40;99.90
15203;DHT22;7702;51.046;5.184;2023-07-20T01:58:38;16.40;99.90
15203;DHT22;7702;51.046;5.184;2023-07-20T02:01:04;16.30;99.90
15203;DHT22;7702;51.046;5.184;2023-07-20T02:03:30;16.30;99.90
15203;DHT22;7702;51.046;5.184;2023-07-20T02:05:56;16.20;99.90
15203;DHT22;7702;51.046;5.184;2023-07-20T02:08:22;16.20;99.90
15203;DHT22;7702;51.046;5.184;2023-07-20T02:10:48;16.10;99.90
15203;DHT22;7702;51.046;5.184;2023-07-20T02:13:15;16.10;99.90
15203;DHT22;7702;51.046;5.184;2023-07-20T02:15:41;16.10;99.90
15203;DHT22;7702;51.046;5.184;2023-07-20T02:18:08;16.00;99.90
15203;DHT22;7702;51.046;5.184;2023-07-20T02:20:34;16.00;99.90
15203;DHT22;7702;51.046;5.184;2023-07-20T02:23:00;16.00;99.90
15203;DHT22;7702;51.046;5.184;2023-07-20T02:25:26;16.00;99.90
15203;DHT22;7702;51.046;5.184;2023-07-20T02:27:52;16.00;99.90
15203;DHT22;7702;51.046;5.184;2023-07-20T02:30:17;16.10;99.90
15203;DHT22;7702;51.046;5.184;2023-07-20T02:32:43;16.10;99.90
15203;DHT22;7702;51.046;5.184;2023-07-20T02:35:14;16.00;99.90
15203;DHT22;7702;51.046;5.184;2023-07-20T02:37:40;16.00;99.90
15203;DHT22;7702;51.046;5.184;2023-07-20T02:40:06;16.00;99.90
15203;DHT22;7702;51.046;5.184;2023-07-20T02:42:33;15.90;99.90
15203;DHT22;7702;51.046;5.184;2023-07-20T02:44:58;15.90;99.90
15203;DHT22;7702;51.046;5.184;2023-07-20T02:47:24;15.90;99.90
15203;DHT22;7702;51.046;5.184;2023-07-20T02:49:50;15.90;99.90
15203;DHT22;7702;51.046;5.184;2023-07-20T02:52:16;15.80;99.90
15203;DHT22;7702;51.046;5.184;2023-07-20T02:54:42;15.80;99.90
15203;DHT22;7702;51.046;5.184;2023-07-20T02:57:08;15.80;99.90
15203;DHT22;7702;51.046;5.184;2023-07-20T02:59:34;15.80;99.90
15203;DHT22;7702;51.046;5.184;2023-07-20T03:01:59;15.80;99.90
15203;DHT22;7702;51.046;5.184;2023-07-20T03:04:28;15.80;99.90
15203;DHT22;7702;51.046;5.184;2023-07-20T03:06:54;15.80;99.90
15203;DHT22;7702;51.046;5.184;2023-07-20T03:09:19;15.80;99.90
15203;DHT22;7702;51.046;5.184;2023-07-20T03:11:45;15.80;99.90
15203;DHT22;7702;51.046;5.184;2023-07-20T03:14:11;15.80;99.90
15203;DHT22;7702;51.046;5.184;2023-07-20T03:16:37;15.80;99.90
15203;DHT22;7702;51.046;5.184;2023-07-20T03:19:03;15.90;99.90
15203;DHT22;7702;51.046;5.184;2023-07-20T03:21:29;15.90;99.90
15203;DHT22;7702;51.046;5.184;2023-07-20T03:23:55;15.90;99.90
15203;DHT22;7702;51.046;5.184;2023-07-20T03:26:21;15.90;99.90
15203;DHT22;7702;51.046;5.184;2023-07-20T03:28:46;16.00;99.90
15203;DHT22;7702;51.046;5.184;2023-07-20T03:31:12;15.90;99.90
15203;DHT22;7702;51.046;5.184;2023-07-20T03:33:40;16.10;99.90
15203;DHT22;7702;51.046;5.184;2023-07-20T03:36:06;16.10;99.90
15203;DHT22;7702;51.046;5.184;2023-07-20T03:38:32;16.00;99.90
15203;DHT22;7702;51.046;5.184;2023-07-20T03:41:00;16.00;99.90
15203;DHT22;7702;51.046;5.184;2023-07-20T03:43:27;15.90;99.90
15203;DHT22;7702;51.046;5.184;2023-07-20T03:45:53;15.90;99.90
15203;DHT22;7702;51.046;5.184;2023-07-20T03:48:21;15.80;99.90
15203;DHT22;7702;51.046;5.184;2023-07-20T03:50:49;15.80;99.90
15203;DHT22;7702;51.046;5.184;2023-07-20T03:53:16;15.80;99.90
15203;DHT22;7702;51.046;5.184;2023-07-20T03:55:49;15.70;99.90
15203;DHT22;7702;51.046;5.184;2023-07-20T03:58:16;15.70;99.90
15203;DHT22;7702;51.046;5.184;2023-07-20T04:00:51;15.70;99.90
15203;DHT22;7702;51.046;5.184;2023-07-20T04:03:17;15.70;99.90
15203;DHT22;7702;51.046;5.184;2023-07-20T04:05:44;15.70;99.90
15203;DHT22;7702;51.046;5.184;2023-07-20T04:08:10;15.70;99.90
15203;DHT22;7702;51.046;5.184;2023-07-20T04:10:36;15.70;99.90
15203;DHT22;7702;51.046;5.184;2023-07-20T04:13:03;15.70;99.90
15203;DHT22;7702;51.046;5.184;2023-07-20T04:15:29;15.70;99.90
15203;DHT22;7702;51.046;5.184;2023-07-20T04:17:55;15.70;99.90
15203;DHT22;7702;51.046;5.184;2023-07-20T04:20:22;15.60;99.90
15203;DHT22;7702;51.046;5.184;2023-07-20T04:22:48;15.60;99.90
15203;DHT22;7702;51.046;5.184;2023-07-20T04:25:14;15.60;99.90
15203;DHT22;7702;51.046;5.184;2023-07-20T04:27:39;15.60;99.90
15203;DHT22;7702;51.046;5.184;2023-07-20T04:30:07;15.60;99.90
15203;DHT22;7702;51.046;5.184;2023-07-20T04:32:33;15.60;99.90
15203;DHT22;7702;51.046;5.184;2023-07-20T04:34:59;15.60;99.90
15203;DHT22;7702;51.046;5.184;2023-07-20T04:37:25;15.50;99.90
15203;DHT22;7702;51.046;5.184;2023-07-20T04:39:50;15.50;99.90
15203;DHT22;7702;51.046;5.184;2023-07-20T04:42:16;15.50;99.90
15203;DHT22;7702;51.046;5.184;2023-07-20T04:44:42;15.50;99.90
15203;DHT22;7702;51.046;5.184;2023-07-20T04:47:08;15.60;99.90
15203;DHT22;7702;51.046;5.184;2023-07-20T04:49:36;15.60;99.90
15203;DHT22;7702;51.046;5.184;2023-07-20T04:52:02;15.60;99.90
15203;DHT22;7702;51.046;5.184;2023-07-20T04:54:29;15.70;99.90
15203;DHT22;7702;51.046;5.184;2023-07-20T04:56:54;15.70;99.90
15203;DHT22;7702;51.046;5.184;2023-07-20T04:59:20;15.80;99.90
15203;DHT22;7702;51.046;5.184;2023-07-20T05:01:45;15.70;99.90
15203;DHT22;7702;51.046;5.184;2023-07-20T05:04:11;15.80;99.90
15203;DHT22;7702;51.046;5.184;2023-07-20T05:06:37;15.80;99.90
15203;DHT22;7702;51.046;5.184;2023-07-20T05:09:04;15.70;99.90
15203;DHT22;7702;51.046;5.184;2023-07-20T05:11:30;15.80;99.90
15203;DHT22;7702;51.046;5.184;2023-07-20T05:13:56;15.80;99.90
15203;DHT22;7702;51.046;5.184;2023-07-20T05:16:22;15.80;99.90
15203;DHT22;7702;51.046;5.184;2023-07-20T05:18:47;15.80;99.90
15203;DHT22;7702;51.046;5.184;2023-07-20T05:21:13;16.00;99.90
15203;DHT22;7702;51.046;5.184;2023-07-20T05:23:39;16.20;99.90
15203;DHT22;7702;51.046;5.184;2023-07-20T05:26:04;16.30;99.90
15203;DHT22;7702;51.046;5.184;2023-07-20T05:28:31;16.40;99.90
15203;DHT22;7702;51.046;5.184;2023-07-20T05:30:57;16.40;99.90
15203;DHT22;7702;51.046;5.184;2023-07-20T05:33:25;16.50;99.90
15203;DHT22;7702;51.046;5.184;2023-07-20T05:35:51;16.50;99.90
15203;DHT22;7702;51.046;5.184;2023-07-20T05:38:16;16.50;99.90
15203;DHT22;7702;51.046;5.184;2023-07-20T05:40:44;16.60;99.90
15203;DHT22;7702;51.046;5.184;2023-07-20T05:43:10;16.70;99.90
15203;DHT22;7702;51.046;5.184;2023-07-20T05:45:36;16.90;99.90
15203;DHT22;7702;51.046;5.184;2023-07-20T05:48:02;17.10;99.90
15203;DHT22;7702;51.046;5.184;2023-07-20T05:50:28;17.20;99.90
15203;DHT22;7702;51.046;5.184;2023-07-20T05:52:54;17.00;99.90
15203;DHT22;7702;51.046;5.184;2023-07-20T05:55:20;17.00;99.90
15203;DHT22;7702;51.046;5.184;2023-07-20T05:57:46;17.00;99.90
15203;DHT22;7702;51.046;5.184;2023-07-20T06:00:14;17.00;99.90
15203;DHT22;7702;51.046;5.184;2023-07-20T06:02:40;17.00;99.90
15203;DHT22;7702;51.046;5.184;2023-07-20T06:05:08;16.90;99.90
15203;DHT22;7702;51.046;5.184;2023-07-20T06:07:37;16.90;99.90
15203;DHT22;7702;51.046;5.184;2023-07-20T06:10:03;16.90;99.90
15203;DHT22;7702;51.046;5.184;2023-07-20T06:12:29;16.90;99.90
15203;DHT22;7702;51.046;5.184;2023-07-20T06:14:55;17.00;99.90
15203;DHT22;7702;51.046;5.184;2023-07-20T06:17:21;17.00;99.90
15203;DHT22;7702;51.046;5.184;2023-07-20T06:19:47;17.30;99.90
15203;DHT22;7702;51.046;5.184;2023-07-20T06:22:12;17.50;99.90
15203;DHT22;7702;51.046;5.184;2023-07-20T06:24:38;17.50;99.90
15203;DHT22;7702;51.046;5.184;2023-07-20T06:27:04;17.80;99.90
15203;DHT22;7702;51.046;5.184;2023-07-20T06:29:31;18.10;99.90
15203;DHT22;7702;51.046;5.184;2023-07-20T06:31:57;18.20;99.90
15203;DHT22;7702;51.046;5.184;2023-07-20T06:34:22;18.40;99.90
15203;DHT22;7702;51.046;5.184;2023-07-20T06:36:48;18.50;99.90
15203;DHT22;7702;51.046;5.184;2023-07-20T06:39:13;18.70;99.90
15203;DHT22;7702;51.046;5.184;2023-07-20T06:41:39;18.90;99.90
15203;DHT22;7702;51.046;5.184;2023-07-20T06:44:05;19.00;99.90
15203;DHT22;7702;51.046;5.184;2023-07-20T06:46:31;18.80;99.90
15203;DHT22;7702;51.046;5.184;2023-07-20T06:48:56;19.10;99.90
15203;DHT22;7702;51.046;5.184;2023-07-20T06:51:22;19.10;99.90
15203;DHT22;7702;51.046;5.184;2023-07-20T06:53:49;18.80;99.90
15203;DHT22;7702;51.046;5.184;2023-07-20T06:56:14;18.60;99.90
15203;DHT22;7702;51.046;5.184;2023-07-20T06:58:40;18.60;99.90
15203;DHT22;7702;51.046;5.184;2023-07-20T07:01:07;18.40;99.90
15203;DHT22;7702;51.046;5.184;2023-07-20T07:03:33;18.30;99.90
15203;DHT22;7702;51.046;5.184;2023-07-20T07:05:59;18.60;99.90
15203;DHT22;7702;51.046;5.184;2023-07-20T07:08:25;18.80;99.90
15203;DHT22;7702;51.046;5.184;2023-07-20T07:10:52;18.90;99.90
15203;DHT22;7702;51.046;5.184;2023-07-20T07:13:18;19.00;99.90
15203;DHT22;7702;51.046;5.184;2023-07-20T07:15:44;19.20;99.90
15203;DHT22;7702;51.046;5.184;2023-07-20T07:18:10;19.30;99.90
15203;DHT22;7702;51.046;5.184;2023-07-20T07:20:35;19.40;99.90
15203;DHT22;7702;51.046;5.184;2023-07-20T07:23:01;19.30;99.90
15203;DHT22;7702;51.046;5.184;2023-07-20T07:25:27;19.10;99.90
15203;DHT22;7702;51.046;5.184;2023-07-20T07:27:54;19.20;99.90
15203;DHT22;7702;51.046;5.184;2023-07-20T07:30:21;19.30;99.90
15203;DHT22;7702;51.046;5.184;2023-07-20T07:32:47;19.50;99.90
15203;DHT22;7702;51.046;5.184;2023-07-20T07:35:13;19.50;99.90
15203;DHT22;7702;51.046;5.184;2023-07-20T07:37:39;19.30;99.90
15203;DHT22;7702;51.046;5.184;2023-07-20T07:40:05;19.30;99.90
15203;DHT22;7702;51.046;5.184;2023-07-20T07:42:31;19.30;99.90
15203;DHT22;7702;51.046;5.184;2023-07-20T07:44:57;19.40;99.90
15203;DHT22;7702;51.046;5.184;2023-07-20T07:47:23;19.70;99.90
15203;DHT22;7702;51.046;5.184;2023-07-20T07:49:49;19.70;99.90
15203;DHT22;7702;51.046;5.184;2023-07-20T07:52:15;19.60;99.90
15203;DHT22;7702;51.046;5.184;2023-07-20T07:54:41;19.70;99.90
15203;DHT22;7702;51.046;5.184;2023-07-20T07:57:07;19.70;99.90
15203;DHT22;7702;51.046;5.184;2023-07-20T07:59:32;20.10;99.90
15203;DHT22;7702;51.046;5.184;2023-07-20T08:02:05;20.40;99.90
15203;DHT22;7702;51.046;5.184;2023-07-20T08:04:31;20.80;99.90
15203;DHT22;7702;51.046;5.184;2023-07-20T08:06:57;21.40;99.90
15203;DHT22;7702;51.046;5.184;2023-07-20T08:09:23;21.70;99.90
15203;DHT22;7702;51.046;5.184;2023-07-20T08:11:48;21.50;99.90
15203;DHT22;7702;51.046;5.184;2023-07-20T08:14:15;21.60;99.90
15203;DHT22;7702;51.046;5.184;2023-07-20T08:16:41;22.00;99.90
15203;DHT22;7702;51.046;5.184;2023-07-20T08:19:08;22.00;99.90
15203;DHT22;7702;51.046;5.184;2023-07-20T08:21:34;21.50;99.90
15203;DHT22;7702;51.046;5.184;2023-07-20T08:23:59;21.00;99.90
15203;DHT22;7702;51.046;5.184;2023-07-20T08:26:25;21.10;99.90
15203;DHT22;7702;51.046;5.184;2023-07-20T08:28:50;21.00;99.90
15203;DHT22;7702;51.046;5.184;2023-07-20T08:31:16;20.50;99.90
15203;DHT22;7702;51.046;5.184;2023-07-20T08:33:42;20.50;99.90
15203;DHT22;7702;51.046;5.184;2023-07-20T08:36:08;20.20;99.90
15203;DHT22;7702;51.046;5.184;2023-07-20T08:38:34;20.50;99.90
15203;DHT22;7702;51.046;5.184;2023-07-20T08:40:59;20.70;99.90
15203;DHT22;7702;51.046;5.184;2023-07-20T08:43:27;21.10;99.90
15203;DHT22;7702;51.046;5.184;2023-07-20T08:45:57;21.70;99.90
15203;DHT22;7702;51.046;5.184;2023-07-20T08:48:24;22.20;99.90
15203;DHT22;7702;51.046;5.184;2023-07-20T08:50:51;22.70;99.90
15203;DHT22;7702;51.046;5.184;2023-07-20T08:53:20;23.40;99.90
15203;DHT22;7702;51.046;5.184;2023-07-20T08:55:45;23.70;99.90
15203;DHT22;7702;51.046;5.184;2023-07-20T08:58:14;24.10;99.90
15203;DHT22;7702;51.046;5.184;2023-07-20T09:00:41;23.60;99.90
15203;DHT22;7702;51.046;5.184;2023-07-20T09:03:07;23.60;99.90
15203;DHT22;7702;51.046;5.184;2023-07-20T09:05:34;22.80;99.90
15203;DHT22;7702;51.046;5.184;2023-07-20T09:08:01;22.40;99.90
15203;DHT22;7702;51.046;5.184;2023-07-20T09:10:29;22.10;99.90
15203;DHT22;7702;51.046;5.184;2023-07-20T09:12:54;21.80;99.90
15203;DHT22;7702;51.046;5.184;2023-07-20T09:15:22;21.70;99.90
15203;DHT22;7702;51.046;5.184;2023-07-20T09:17:49;21.70;99.90
15203;DHT22;7702;51.046;5.184;2023-07-20T09:20:16;21.70;99.90
15203;DHT22;7702;51.046;5.184;2023-07-20T09:22:43;21.50;99.90
15203;DHT22;7702;51.046;5.184;2023-07-20T09:25:16;21.30;99.90
15203;DHT22;7702;51.046;5.184;2023-07-20T09:27:45;21.40;99.90
15203;DHT22;7702;51.046;5.184;2023-07-20T09:30:11;21.40;99.90
15203;DHT22;7702;51.046;5.184;2023-07-20T09:32:44;21.20;99.90
15203;DHT22;7702;51.046;5.184;2023-07-20T09:35:18;21.20;99.90
15203;DHT22;7702;51.046;5.184;2023-07-20T09:40:21;20.80;99.90
15203;DHT22;7702;51.046;5.184;2023-07-20T09:42:47;20.80;99.90
15203;DHT22;7702;51.046;5.184;2023-07-20T09:45:14;20.90;99.90
15203;DHT22;7702;51.046;5.184;2023-07-20T09:47:40;21.10;99.90
15203;DHT22;7702;51.046;5.184;2023-07-20T09:50:07;21.30;99.90
15203;DHT22;7702;51.046;5.184;2023-07-20T09:52:42;21.50;99.90
15203;DHT22;7702;51.046;5.184;2023-07-20T09:55:13;21.80;99.90
15203;DHT22;7702;51.046;5.184;2023-07-20T09:57:39;22.10;99.90
15203;DHT22;7702;51.046;5.184;2023-07-20T10:00:07;22.50;99.90
15203;DHT22;7702;51.046;5.184;2023-07-20T10:02:41;23.30;99.90
15203;DHT22;7702;51.046;5.184;2023-07-20T10:05:10;23.20;99.90
15203;DHT22;7702;51.046;5.184;2023-07-20T10:07:43;22.80;99.90
15203;DHT22;7702;51.046;5.184;2023-07-20T10:10:09;23.10;99.90
15203;DHT22;7702;51.046;5.184;2023-07-20T10:12:37;23.30;99.90
15203;DHT22;7702;51.046;5.184;2023-07-20T10:15:13;23.90;99.90
15203;DHT22;7702;51.046;5.184;2023-07-20T10:18:09;24.10;99.90
15203;DHT22;7702;51.046;5.184;2023-07-20T10:20:39;24.70;99.90
15203;DHT22;7702;51.046;5.184;2023-07-20T10:23:07;25.40;99.90
15203;DHT22;7702;51.046;5.184;2023-07-20T10:25:33;25.30;99.90
15203;DHT22;7702;51.046;5.184;2023-07-20T10:28:05;24.80;99.90
15203;DHT22;7702;51.046;5.184;2023-07-20T10:30:32;24.90;99.90
15203;DHT22;7702;51.046;5.184;2023-07-20T10:33:00;25.60;99.90
15203;DHT22;7702;51.046;5.184;2023-07-20T10:35:28;26.20;99.90
15203;DHT22;7702;51.046;5.184;2023-07-20T10:38:03;26.30;99.90
15203;DHT22;7702;51.046;5.184;2023-07-20T10:40:34;25.90;99.90
15203;DHT22;7702;51.046;5.184;2023-07-20T10:43:04;25.90;99.90
15203;DHT22;7702;51.046;5.184;2023-07-20T10:45:42;25.70;99.90
15203;DHT22;7702;51.046;5.184;2023-07-20T10:48:25;26.50;99.90
15203;DHT22;7702;51.046;5.184;2023-07-20T10:51:11;27.40;99.90
15203;DHT22;7702;51.046;5.184;2023-07-20T10:53:38;27.90;99.90
15203;DHT22;7702;51.046;5.184;2023-07-20T10:56:15;27.70;99.90
15203;DHT22;7702;51.046;5.184;2023-07-20T10:58:44;27.30;99.50
15203;DHT22;7702;51.046;5.184;2023-07-20T11:01:14;27.30;99.80
15203;DHT22;7702;51.046;5.184;2023-07-20T11:03:40;27.50;98.40
15203;DHT22;7702;51.046;5.184;2023-07-20T11:11:34;27.80;94.70
15203;DHT22;7702;51.046;5.184;2023-07-20T11:14:02;27.70;92.10
15203;DHT22;7702;51.046;5.184;2023-07-20T11:16:35;26.50;92.00
15203;DHT22;7702;51.046;5.184;2023-07-20T11:19:01;26.10;95.90
15203;DHT22;7702;51.046;5.184;2023-07-20T11:21:28;26.50;96.60
15203;DHT22;7702;51.046;5.184;2023-07-20T11:23:53;26.70;96.60
15203;DHT22;7702;51.046;5.184;2023-07-20T11:26:20;26.40;94.20
15203;DHT22;7702;51.046;5.184;2023-07-20T11:28:50;25.60;96.50
15203;DHT22;7702;51.046;5.184;2023-07-20T11:31:20;26.20;99.90
15203;DHT22;7702;51.046;5.184;2023-07-20T11:33:46;27.00;98.40
15203;DHT22;7702;51.046;5.184;2023-07-20T11:36:13;27.50;96.20
15203;DHT22;7702;51.046;5.184;2023-07-20T11:38:41;26.50;93.30
15203;DHT22;7702;51.046;5.184;2023-07-20T11:41:08;26.00;95.30
15203;DHT22;7702;51.046;5.184;2023-07-20T11:43:34;25.80;96.50
15203;DHT22;7702;51.046;5.184;2023-07-20T11:45:59;25.90;96.20
15203;DHT22;7702;51.046;5.184;2023-07-20T11:48:26;25.70;97.20
15203;DHT22;7702;51.046;5.184;2023-07-20T11:50:51;25.10;95.90
15203;DHT22;7702;51.046;5.184;2023-07-20T11:53:18;25.40;99.20
15203;DHT22;7702;51.046;5.184;2023-07-20T11:55:45;25.80;95.10
15203;DHT22;7702;51.046;5.184;2023-07-20T11:58:11;25.10;97.80
15203;DHT22;7702;51.046;5.184;2023-07-20T12:00:38;24.90;98.30
15203;DHT22;7702;51.046;5.184;2023-07-20T12:03:07;24.80;99.90
15203;DHT22;7702;51.046;5.184;2023-07-20T12:05:33;24.80;99.60
15203;DHT22;7702;51.046;5.184;2023-07-20T12:08:00;24.40;99.90
15203;DHT22;7702;51.046;5.184;2023-07-20T12:10:26;24.30;99.90
15203;DHT22;7702;51.046;5.184;2023-07-20T12:12:54;24.20;99.90
15203;DHT22;7702;51.046;5.184;2023-07-20T12:15:24;24.00;99.90
15203;DHT22;7702;51.046;5.184;2023-07-20T12:17:55;23.50;99.90
15203;DHT22;7702;51.046;5.184;2023-07-20T12:20:31;22.90;99.90
15203;DHT22;7702;51.046;5.184;2023-07-20T12:23:02;22.90;99.90
15203;DHT22;7702;51.046;5.184;2023-07-20T12:25:48;23.10;99.90
15203;DHT22;7702;51.046;5.184;2023-07-20T12:28:16;24.10;99.90
15203;DHT22;7702;51.046;5.184;2023-07-20T12:30:43;25.00;99.90
15203;DHT22;7702;51.046;5.184;2023-07-20T12:33:12;25.90;99.90
15203;DHT22;7702;51.046;5.184;2023-07-20T12:35:41;26.80;99.60
15203;DHT22;7702;51.046;5.184;2023-07-20T12:38:08;26.60;96.60
15203;DHT22;7702;51.046;5.184;2023-07-20T12:40:34;26.70;95.30
15203;DHT22;7702;51.046;5.184;2023-07-20T12:43:01;26.30;96.40
15203;DHT22;7702;51.046;5.184;2023-07-20T12:45:27;25.80;98.90
15203;DHT22;7702;51.046;5.184;2023-07-20T12:47:53;25.50;97.00
15203;DHT22;7702;51.046;5.184;2023-07-20T12:50:19;24.90;99.90
15203;DHT22;7702;51.046;5.184;2023-07-20T12:52:45;24.60;99.90
15203;DHT22;7702;51.046;5.184;2023-07-20T12:55:10;24.70;99.90
15203;DHT22;7702;51.046;5.184;2023-07-20T12:57:37;24.80;99.90
15203;DHT22;7702;51.046;5.184;2023-07-20T13:00:04;25.00;99.90
15203;DHT22;7702;51.046;5.184;2023-07-20T13:02:31;25.00;99.90
15203;DHT22;7702;51.046;5.184;2023-07-20T13:04:57;25.40;99.90
15203;DHT22;7702;51.046;5.184;2023-07-20T13:07:44;26.70;99.90
15203;DHT22;7702;51.046;5.184;2023-07-20T13:10:10;27.00;94.70
15203;DHT22;7702;51.046;5.184;2023-07-20T13:12:37;27.00;93.60
15203;DHT22;7702;51.046;5.184;2023-07-20T13:15:08;26.70;93.90
15203;DHT22;7702;51.046;5.184;2023-07-20T13:17:35;26.50;95.00
15203;DHT22;7702;51.046;5.184;2023-07-20T13:20:02;26.20;96.70
15203;DHT22;7702;51.046;5.184;2023-07-20T13:22:30;25.80;97.20
15203;DHT22;7702;51.046;5.184;2023-07-20T13:24:56;25.50;96.60
15203;DHT22;7702;51.046;5.184;2023-07-20T13:27:21;25.40;97.00
15203;DHT22;7702;51.046;5.184;2023-07-20T13:29:47;25.50;97.90
15203;DHT22;7702;51.046;5.184;2023-07-20T13:32:13;25.60;99.90
15203;DHT22;7702;51.046;5.184;2023-07-20T13:34:44;25.90;96.40
15203;DHT22;7702;51.046;5.184;2023-07-20T13:37:14;25.90;97.10
15203;DHT22;7702;51.046;5.184;2023-07-20T13:39:39;25.70;96.80
15203;DHT22;7702;51.046;5.184;2023-07-20T13:42:05;25.50;96.50
15203;DHT22;7702;51.046;5.184;2023-07-20T13:44:32;25.70;94.90
15203;DHT22;7702;51.046;5.184;2023-07-20T13:46:58;26.20;94.30
15203;DHT22;7702;51.046;5.184;2023-07-20T13:49:24;26.70;95.20
15203;DHT22;7702;51.046;5.184;2023-07-20T13:51:49;26.70;91.70
15203;DHT22;7702;51.046;5.184;2023-07-20T13:54:15;26.10;92.40
15203;DHT22;7702;51.046;5.184;2023-07-20T13:56:41;26.50;91.30
15203;DHT22;7702;51.046;5.184;2023-07-20T13:59:06;25.60;90.40
15203;DHT22;7702;51.046;5.184;2023-07-20T14:01:32;25.20;92.10
15203;DHT22;7702;51.046;5.184;2023-07-20T14:03:59;25.00;91.90
15203;DHT22;7702;51.046;5.184;2023-07-20T14:06:25;24.50;93.00
15203;DHT22;7702;51.046;5.184;2023-07-20T14:08:51;24.50;94.90
15203;DHT22;7702;51.046;5.184;2023-07-20T14:11:18;24.50;94.00
15203;DHT22;7702;51.046;5.184;2023-07-20T14:13:44;24.50;95.20
15203;DHT22;7702;51.046;5.184;2023-07-20T14:16:10;24.60;95.90
15203;DHT22;7702;51.046;5.184;2023-07-20T14:18:36;24.10;96.60
15203;DHT22;7702;51.046;5.184;2023-07-20T14:21:02;23.90;98.70
15203;DHT22;7702;51.046;5.184;2023-07-20T14:23:29;24.00;99.10
15203;DHT22;7702;51.046;5.184;2023-07-20T14:25:55;23.70;98.60
15203;DHT22;7702;51.046;5.184;2023-07-20T14:28:21;23.60;99.90
15203;DHT22;7702;51.046;5.184;2023-07-20T14:30:46;23.70;99.90
15203;DHT22;7702;51.046;5.184;2023-07-20T14:33:12;23.80;99.90
15203;DHT22;7702;51.046;5.184;2023-07-20T14:35:38;23.70;99.90
15203;DHT22;7702;51.046;5.184;2023-07-20T14:38:04;23.70;99.90
15203;DHT22;7702;51.046;5.184;2023-07-20T14:40:29;23.60;99.90
15203;DHT22;7702;51.046;5.184;2023-07-20T14:42:56;23.30;99.90
15203;DHT22;7702;51.046;5.184;2023-07-20T14:45:22;23.40;99.90
15203;DHT22;7702;51.046;5.184;2023-07-20T14:47:47;23.30;99.90
15203;DHT22;7702;51.046;5.184;2023-07-20T14:50:21;23.20;99.90
15203;DHT22;7702;51.046;5.184;2023-07-20T14:52:47;23.10;99.90
15203;DHT22;7702;51.046;5.184;2023-07-20T14:55:13;23.00;99.90
15203;DHT22;7702;51.046;5.184;2023-07-20T14:57:39;22.80;99.90
15203;DHT22;7702;51.046;5.184;2023-07-20T15:00:05;22.70;99.90
15203;DHT22;7702;51.046;5.184;2023-07-20T15:02:33;22.70;99.90
15203;DHT22;7702;51.046;5.184;2023-07-20T15:04:59;22.60;99.90
15203;DHT22;7702;51.046;5.184;2023-07-20T15:07:25;22.60;99.90
15203;DHT22;7702;51.046;5.184;2023-07-20T15:09:51;22.40;99.90
15203;DHT22;7702;51.046;5.184;2023-07-20T15:12:17;22.40;99.90
15203;DHT22;7702;51.046;5.184;2023-07-20T15:14:43;22.20;99.90
15203;DHT22;7702;51.046;5.184;2023-07-20T15:17:11;22.10;99.90
15203;DHT22;7702;51.046;5.184;2023-07-20T15:19:38;22.20;99.90
15203;DHT22;7702;51.046;5.184;2023-07-20T15:22:04;22.20;99.90
15203;DHT22;7702;51.046;5.184;2023-07-20T15:24:30;22.10;99.90
15203;DHT22;7702;51.046;5.184;2023-07-20T15:26:56;22.00;99.90
15203;DHT22;7702;51.046;5.184;2023-07-20T15:29:23;22.10;99.90
15203;DHT22;7702;51.046;5.184;2023-07-20T15:31:49;22.10;99.90
15203;DHT22;7702;51.046;5.184;2023-07-20T15:34:15;22.20;99.90
15203;DHT22;7702;51.046;5.184;2023-07-20T15:36:41;22.30;99.90
15203;DHT22;7702;51.046;5.184;2023-07-20T15:39:08;22.60;99.90
15203;DHT22;7702;51.046;5.184;2023-07-20T15:41:33;22.50;99.90
15203;DHT22;7702;51.046;5.184;2023-07-20T15:44:00;22.50;99.90
15203;DHT22;7702;51.046;5.184;2023-07-20T15:49:07;22.20;99.90
15203;DHT22;7702;51.046;5.184;2023-07-20T15:51:36;22.20;99.90
15203;DHT22;7702;51.046;5.184;2023-07-20T15:54:04;22.30;99.90
15203;DHT22;7702;51.046;5.184;2023-07-20T15:56:32;22.20;99.90
15203;DHT22;7702;51.046;5.184;2023-07-20T15:58:58;22.10;99.90
15203;DHT22;7702;51.046;5.184;2023-07-20T16:01:24;22.10;99.90